createdAt,value
2019-06-07T00:00:53.420Z,33.05
2019-06-07T00:03:27.568Z,30.92
2019-06-07T00:05:47.615Z,34.97
2019-06-07T00:08:24.171Z,36.35
2019-06-07T00:10:41.948Z,29.70
2019-06-07T00:13:09.796Z,34.03
2019-06-07T00:15:36.635Z,31.58
2019-06-07T00:18:03.836Z,35.22
2019-06-07T00:20:30.935Z,27.42
2019-06-07T00:22:58.086Z,29.25
2019-06-07T00:25:25.643Z,33.35
2019-06-07T00:27:52.696Z,33.42
2019-06-07T00:30:40.092Z,33.05
2019-06-07T00:32:47.618Z,29.95
2019-06-07T00:35:19.379Z,32.22
2019-06-07T00:37:43.548Z,27.30
2019-06-07T00:40:16.260Z,34.58
2019-06-07T00:42:37.854Z,27.83
2019-06-07T00:45:05.033Z,31.23
2019-06-07T00:47:32.056Z,29.75
2019-06-07T00:49:59.065Z,28.38
2019-06-07T00:54:53.350Z,38.40
2019-06-07T00:57:22.165Z,27.40
2019-06-07T00:59:47.503Z,27.52
2019-06-07T01:02:16.101Z,35.00
2019-06-07T01:04:41.905Z,28.17
2019-06-07T01:07:09.052Z,34.17
2019-06-07T01:09:36.108Z,35.30
2019-06-07T01:12:03.258Z,27.95
2019-06-07T01:14:30.609Z,36.92
2019-06-07T01:17:13.531Z,30.48
2019-06-07T01:19:27.583Z,32.95
2019-06-07T01:21:51.961Z,38.72
2019-06-07T01:24:20.085Z,39.25
2019-06-07T01:26:46.180Z,34.90
2019-06-07T01:29:13.359Z,29.12
2019-06-07T01:31:40.666Z,32.55
2019-06-07T01:34:07.714Z,34.92
2019-06-07T01:36:34.769Z,38.67
2019-06-07T01:39:02.029Z,38.45
2019-06-07T01:41:31.222Z,37.08
2019-06-07T01:43:58.264Z,31.77
2019-06-07T01:46:26.742Z,33.65
2019-06-07T01:48:52.465Z,35.35
2019-06-07T01:51:20.064Z,35.47
2019-06-07T01:53:46.670Z,38.50
2019-06-07T01:56:13.820Z,37.60
2019-06-07T01:58:40.893Z,39.25
2019-06-07T02:01:08.014Z,42.33
2019-06-07T02:03:35.067Z,34.92
2019-06-07T02:06:02.119Z,41.47
2019-06-07T02:08:34.101Z,32.08
2019-06-07T02:10:56.422Z,34.28
2019-06-07T02:13:23.914Z,36.53
2019-06-07T02:15:50.721Z,37.92
2019-06-07T02:18:17.765Z,44.53
2019-06-07T02:20:44.972Z,33.78
2019-06-07T02:23:12.066Z,32.28
2019-06-07T02:25:48.458Z,38.15
2019-06-07T02:28:27.257Z,32.17
2019-06-07T02:30:45.781Z,34.60
2019-06-07T02:33:00.549Z,36.63
2019-06-07T02:35:38.285Z,31.90
2019-06-07T02:37:55.657Z,35.58
2019-06-07T02:40:24.446Z,29.35
2019-06-07T02:42:50.620Z,31.45
2019-06-07T02:45:17.767Z,33.35
2019-06-07T02:47:44.869Z,35.47
2019-06-07T02:50:12.166Z,30.60
2019-06-07T02:52:40.950Z,25.45
2019-06-07T02:55:07.182Z,32.03
2019-06-07T02:57:36.812Z,27.92
2019-06-07T03:00:16.997Z,30.83
2019-06-07T03:02:33.269Z,30.55
2019-06-07T03:04:57.219Z,34.75
2019-06-07T03:07:27.465Z,31.58
2019-06-07T03:09:51.561Z,31.42
2019-06-07T03:12:18.780Z,31.37
2019-06-07T03:14:45.930Z,28.23
2019-06-07T03:17:13.079Z,28.35
2019-06-07T03:19:40.212Z,32.35
2019-06-07T03:22:07.276Z,29.00
2019-06-07T03:24:36.262Z,30.45
2019-06-07T03:29:29.976Z,46.67
2019-06-07T03:31:55.940Z,36.25
2019-06-07T03:34:23.032Z,34.08
2019-06-07T03:36:50.084Z,33.60
2019-06-07T03:39:17.128Z,26.98
2019-06-07T03:42:04.582Z,32.90
2019-06-07T03:44:11.329Z,28.00
2019-06-07T03:46:41.229Z,39.25
2019-06-07T03:49:05.533Z,34.15
2019-06-07T03:51:34.891Z,27.17
2019-06-07T03:53:59.727Z,29.67
2019-06-07T03:56:28.298Z,36.72
2019-06-07T03:58:53.926Z,32.00
2019-06-07T04:01:20.946Z,27.58
2019-06-07T04:03:51.798Z,29.08
2019-06-07T04:06:15.178Z,34.28
2019-06-07T04:08:42.438Z,31.65
2019-06-07T04:11:09.375Z,31.10
2019-06-07T04:13:39.867Z,29.87
2019-06-07T04:16:03.788Z,33.03
2019-06-07T04:18:33.082Z,37.28
2019-06-07T04:20:59.515Z,39.33
2019-06-07T04:23:30.058Z,47.20
2019-06-07T04:25:54.402Z,41.80
2019-06-07T04:28:21.484Z,41.05
2019-06-07T04:30:48.529Z,43.25
2019-06-07T04:33:15.682Z,41.55
2019-06-07T04:35:43.347Z,35.72
2019-06-07T04:38:10.186Z,45.08
2019-06-07T04:40:39.938Z,38.13
2019-06-07T04:43:04.699Z,41.78
2019-06-07T04:45:36.319Z,38.38
2019-06-07T04:47:59.003Z,37.25
2019-06-07T04:50:26.155Z,36.85
2019-06-07T04:52:53.196Z,32.95
2019-06-07T04:55:20.346Z,37.15
2019-06-07T04:57:47.398Z,38.50
2019-06-07T05:00:46.947Z,42.45
2019-06-07T05:02:43.405Z,34.05
2019-06-07T05:05:09.060Z,33.90
2019-06-07T05:07:37.819Z,35.10
2019-06-07T05:10:03.370Z,33.20
2019-06-07T05:12:32.531Z,35.10
2019-06-07T05:14:57.759Z,34.83
2019-06-07T05:17:24.813Z,31.15
2019-06-07T05:19:51.857Z,31.85
2019-06-07T05:22:19.143Z,30.92
2019-06-07T05:24:47.188Z,33.35
2019-06-07T05:27:14.882Z,33.50
2019-06-07T05:29:45.971Z,32.97
2019-06-07T05:32:10.624Z,30.52
2019-06-07T05:34:42.451Z,33.80
2019-06-07T05:37:11.997Z,29.80
2019-06-07T05:39:36.840Z,31.60
2019-06-07T05:42:01.028Z,32.50
2019-06-07T05:44:28.043Z,31.85
2019-06-07T05:46:56.392Z,31.45
2019-06-07T05:49:23.473Z,31.90
2019-06-07T05:51:52.470Z,33.30
2019-06-07T05:54:19.551Z,30.25
2019-06-07T05:56:46.602Z,29.50
2019-06-07T05:59:13.755Z,31.85
2019-06-07T06:01:53.461Z,37.20
2019-06-07T06:04:11.020Z,31.73
2019-06-07T06:06:39.564Z,37.38
2019-06-07T06:09:13.916Z,34.15
2019-06-07T06:11:45.916Z,32.78
2019-06-07T06:14:07.439Z,29.58
2019-06-07T06:16:27.149Z,35.50
2019-06-07T06:18:54.262Z,30.95
2019-06-07T06:21:21.450Z,35.13
2019-06-07T06:23:51.941Z,29.12
2019-06-07T06:26:15.687Z,35.05
2019-06-07T06:28:44.895Z,27.70
2019-06-07T06:31:09.886Z,33.03
2019-06-07T06:33:37.490Z,36.72
2019-06-07T06:36:04.189Z,30.48
2019-06-07T06:38:31.427Z,32.72
2019-06-07T06:41:14.242Z,32.63
2019-06-07T06:43:25.547Z,28.10
2019-06-07T06:45:52.590Z,28.12
2019-06-07T06:48:19.739Z,25.73
2019-06-07T06:50:50.398Z,26.10
2019-06-07T06:53:14.042Z,32.20
2019-06-07T06:55:41.493Z,35.05
2019-06-07T06:58:08.240Z,28.65
2019-06-07T07:01:05.452Z,28.52
2019-06-07T07:05:50.815Z,23.12
2019-06-07T07:08:14.845Z,28.10
2019-06-07T07:10:43.240Z,29.65
2019-06-07T07:13:10.329Z,23.12
2019-06-07T07:15:37.754Z,25.25
2019-06-07T07:18:08.823Z,30.95
2019-06-07T07:20:32.062Z,25.10
2019-06-07T07:22:59.175Z,24.02
2019-06-07T07:25:26.255Z,25.40
2019-06-07T07:27:55.294Z,25.90
2019-06-07T07:30:37.051Z,23.65
2019-06-07T07:33:03.159Z,27.00
2019-06-07T07:35:29.708Z,23.00
2019-06-07T07:37:59.864Z,22.70
2019-06-07T07:42:54.330Z,24.65
2019-06-07T07:45:18.315Z,27.23
2019-06-07T07:48:07.075Z,26.02
2019-06-07T07:50:12.511Z,25.35
2019-06-07T07:52:39.974Z,27.90
2019-06-07T07:55:07.088Z,24.70
2019-06-07T07:57:34.134Z,27.70
2019-06-07T08:00:34.827Z,26.58
2019-06-07T08:02:28.786Z,27.15
2019-06-07T08:07:25.238Z,24.63
2019-06-07T08:09:59.572Z,23.70
2019-06-07T08:12:19.463Z,22.92
2019-06-07T08:14:51.232Z,23.50
2019-06-07T08:17:15.991Z,21.17
2019-06-07T08:19:43.039Z,23.90
2019-06-07T08:22:11.623Z,27.40
2019-06-07T08:24:38.684Z,19.25
2019-06-07T08:27:25.097Z,18.10
2019-06-07T08:29:44.919Z,19.00
2019-06-07T08:32:01.665Z,19.95
2019-06-07T08:34:28.706Z,23.83
2019-06-07T08:36:59.119Z,24.40
2019-06-07T08:39:23.930Z,22.05
2019-06-07T08:42:00.406Z,26.62
2019-06-07T08:44:23.854Z,20.55
2019-06-07T08:46:45.282Z,17.45
2019-06-07T08:49:12.347Z,18.70
2019-06-07T08:51:39.377Z,19.77
2019-06-07T08:54:21.685Z,17.48
2019-06-07T08:56:33.686Z,18.20
2019-06-07T08:59:10.853Z,18.50
2019-06-07T09:01:27.880Z,22.35
2019-06-07T09:04:00.179Z,20.17
2019-06-07T09:08:49.435Z,18.25
2019-06-07T09:11:16.650Z,15.77
2019-06-07T09:13:43.707Z,17.87
2019-06-07T09:16:10.788Z,16.23
2019-06-07T09:18:43.825Z,17.55
2019-06-07T09:21:09.065Z,19.12
2019-06-07T09:23:32.345Z,16.17
2019-06-07T09:26:08.037Z,17.25
2019-06-07T09:28:26.646Z,14.18
2019-06-07T09:30:53.665Z,16.75
2019-06-07T09:33:22.297Z,11.10
2019-06-07T09:35:50.861Z,17.77
2019-06-07T09:38:25.763Z,14.93
2019-06-07T09:40:45.060Z,11.77
2019-06-07T09:44:00.129Z,13.50
2019-06-07T09:45:39.573Z,15.27
2019-06-07T09:48:13.626Z,16.40
2019-06-07T09:50:35.201Z,13.93
2019-06-07T09:53:10.118Z,13.10
2019-06-07T09:55:29.626Z,13.10
2019-06-07T09:58:06.892Z,13.25
2019-06-07T10:00:39.944Z,12.77
2019-06-07T10:02:51.679Z,13.07
2019-06-07T10:05:19.710Z,15.35
2019-06-07T10:08:00.451Z,16.60
2019-06-07T10:12:42.435Z,9.90
2019-06-07T10:15:09.590Z,10.50
2019-06-07T10:17:36.585Z,9.07
2019-06-07T10:20:04.020Z,14.05
2019-06-07T10:22:30.844Z,13.68
2019-06-07T10:24:57.843Z,10.27
2019-06-07T10:27:24.923Z,11.25
2019-06-07T10:29:51.987Z,8.55
2019-06-07T10:32:19.130Z,11.38
2019-06-07T10:34:46.178Z,10.55
2019-06-07T10:37:15.683Z,10.80
2019-06-07T10:39:48.516Z,9.25
2019-06-07T10:42:07.808Z,11.90
2019-06-07T10:44:34.673Z,9.25
2019-06-07T10:47:01.755Z,12.70
2019-06-07T10:49:28.771Z,9.55
2019-06-07T10:51:55.821Z,11.93
2019-06-07T10:54:29.485Z,10.15
2019-06-07T10:56:50.024Z,10.20
2019-06-07T10:59:17.068Z,10.05
2019-06-07T11:01:44.219Z,11.20
2019-06-07T11:04:11.746Z,8.02
2019-06-07T11:06:38.322Z,10.63
2019-06-07T11:09:05.901Z,11.38
2019-06-07T11:11:32.728Z,10.88
2019-06-07T11:13:59.977Z,10.13
2019-06-07T11:16:27.233Z,9.85
2019-06-07T11:18:54.280Z,11.12
2019-06-07T11:21:21.327Z,9.90
2019-06-07T11:23:48.379Z,8.65
2019-06-07T11:26:15.939Z,11.68
2019-06-07T11:28:42.988Z,9.57
2019-06-07T11:31:10.832Z,11.12
2019-06-07T11:33:37.183Z,12.52
2019-06-07T11:36:04.333Z,9.32
2019-06-07T11:38:31.342Z,13.95
2019-06-07T11:40:58.438Z,10.88
2019-06-07T11:43:25.480Z,9.98
2019-06-07T11:45:52.488Z,10.95
2019-06-07T11:48:19.887Z,9.73
2019-06-07T11:50:46.934Z,10.85
2019-06-07T11:53:14.656Z,11.65
2019-06-07T11:55:41.132Z,12.93
2019-06-07T11:58:12.710Z,10.73
2019-06-07T12:00:35.433Z,11.77
2019-06-07T12:03:02.545Z,11.90
2019-06-07T12:05:29.639Z,11.63
2019-06-07T12:07:57.260Z,11.27
2019-06-07T12:10:23.833Z,19.20
2019-06-07T12:12:50.896Z,23.23
2019-06-07T12:15:19.295Z,28.62
2019-06-07T12:17:45.184Z,29.08
2019-06-07T12:20:13.294Z,29.85
2019-06-07T12:22:39.487Z,28.30
2019-06-07T12:25:24.412Z,25.75
2019-06-07T12:27:48.226Z,27.42
2019-06-07T12:30:23.467Z,29.10
2019-06-07T12:32:42.457Z,30.67
2019-06-07T12:35:09.581Z,29.10
2019-06-07T12:37:43.796Z,25.92
2019-06-07T12:40:04.703Z,23.12
2019-06-07T12:42:31.849Z,19.23
2019-06-07T12:44:58.858Z,19.12
2019-06-07T12:47:26.313Z,17.65
2019-06-07T12:49:53.409Z,17.20
2019-06-07T12:52:22.846Z,15.40
2019-06-07T12:54:47.605Z,14.43
2019-06-07T12:57:16.136Z,14.90
2019-06-07T12:59:43.550Z,13.05
2019-06-07T13:02:10.593Z,14.15
2019-06-07T13:04:37.640Z,10.98
2019-06-07T13:07:04.792Z,12.55
2019-06-07T13:09:31.847Z,16.10
2019-06-07T13:11:58.890Z,13.18
2019-06-07T13:14:26.041Z,13.98
2019-06-07T13:16:53.089Z,14.63
2019-06-07T13:19:20.169Z,15.25
2019-06-07T13:21:47.352Z,15.55
2019-06-07T13:24:14.445Z,10.98
2019-06-07T13:26:41.492Z,14.52
2019-06-07T13:29:08.536Z,12.15
2019-06-07T13:31:35.590Z,11.25
2019-06-07T13:34:02.692Z,9.02
2019-06-07T13:36:29.786Z,10.85
2019-06-07T13:38:56.792Z,13.88
2019-06-07T13:41:36.370Z,7.68
2019-06-07T13:43:51.757Z,9.20
2019-06-07T13:46:19.010Z,9.68
2019-06-07T13:48:46.052Z,9.23
2019-06-07T13:51:13.071Z,13.80
2019-06-07T13:53:40.113Z,8.95
2019-06-07T13:56:07.197Z,10.38
2019-06-07T13:58:34.252Z,8.35
2019-06-07T14:01:01.257Z,6.50
2019-06-07T14:03:32.748Z,11.77
2019-06-07T14:05:55.497Z,7.72
2019-06-07T14:08:23.244Z,12.10
2019-06-07T14:10:49.800Z,10.50
2019-06-07T14:13:16.873Z,13.88
2019-06-07T14:15:43.894Z,8.98
2019-06-07T14:18:10.946Z,12.00
2019-06-07T14:20:37.952Z,9.65
2019-06-07T14:23:05.273Z,8.57
2019-06-07T14:25:55.520Z,7.82
2019-06-07T14:28:38.306Z,8.35
2019-06-07T14:31:26.310Z,8.10
2019-06-07T14:33:52.626Z,6.82
2019-06-07T14:36:22.619Z,8.63
2019-06-07T14:38:48.879Z,6.65
2019-06-07T14:41:15.923Z,6.50
2019-06-07T14:43:43.118Z,11.15
2019-06-07T14:46:10.130Z,8.73
2019-06-07T14:48:37.179Z,7.90
2019-06-07T14:51:04.328Z,7.18
2019-06-07T14:53:32.949Z,4.97
2019-06-07T14:55:58.828Z,4.22
2019-06-07T14:58:27.070Z,6.65
2019-06-07T15:00:53.028Z,5.00
2019-06-07T15:03:20.391Z,5.70
2019-06-07T15:05:47.400Z,6.12
2019-06-07T15:08:14.489Z,6.37
2019-06-07T15:10:41.537Z,7.60
2019-06-07T15:13:08.699Z,3.70
2019-06-07T15:15:35.735Z,4.93
2019-06-07T15:18:03.736Z,4.50
2019-06-07T15:20:32.085Z,4.62
2019-06-07T15:22:58.002Z,7.62
2019-06-07T15:25:25.056Z,3.78
2019-06-07T15:27:52.099Z,8.98
2019-06-07T15:30:29.696Z,5.45
2019-06-07T15:33:02.094Z,7.47
2019-06-07T15:35:47.444Z,6.12
2019-06-07T15:38:23.289Z,7.30
2019-06-07T15:40:50.456Z,6.07
2019-06-07T15:43:17.507Z,5.57
2019-06-07T15:45:44.658Z,7.25
2019-06-07T15:48:11.701Z,3.33
2019-06-07T15:50:38.760Z,7.53
2019-06-07T15:53:05.912Z,3.65
2019-06-07T15:55:37.126Z,6.80
2019-06-07T15:58:00.105Z,4.85
2019-06-07T16:00:27.151Z,9.00
2019-06-07T16:02:54.308Z,5.43
2019-06-07T16:05:21.350Z,5.32
2019-06-07T16:07:48.359Z,2.80
2019-06-07T16:10:15.446Z,5.05
2019-06-07T16:12:58.914Z,5.37
2019-06-07T16:15:09.655Z,5.62
2019-06-07T16:17:37.220Z,3.67
2019-06-07T16:20:04.772Z,6.80
2019-06-07T16:22:31.791Z,5.03
2019-06-07T16:24:58.826Z,6.45
2019-06-07T16:27:25.922Z,4.22
2019-06-07T16:29:52.961Z,3.70
2019-06-07T16:32:20.011Z,4.53
2019-06-07T16:34:48.457Z,4.70
2019-06-07T16:37:16.984Z,3.80
2019-06-07T16:39:46.242Z,4.10
2019-06-07T16:42:13.326Z,6.85
2019-06-07T16:44:40.604Z,5.60
2019-06-07T16:47:07.528Z,9.10
2019-06-07T16:49:34.579Z,7.37
2019-06-07T16:52:01.671Z,5.10
2019-06-07T16:54:30.309Z,5.93
2019-06-07T16:56:57.833Z,7.82
2019-06-07T16:59:24.919Z,7.90
2019-06-07T17:01:52.041Z,5.68
2019-06-07T17:04:19.306Z,5.18
2019-06-07T17:06:48.289Z,7.15
2019-06-07T17:09:15.170Z,7.80
2019-06-07T17:11:44.350Z,7.45
2019-06-07T17:14:12.493Z,4.62
2019-06-07T17:16:40.822Z,5.68
2019-06-07T17:19:06.734Z,5.65
2019-06-07T17:21:36.843Z,7.60
2019-06-07T17:24:04.006Z,7.22
2019-06-07T17:26:31.465Z,8.60
2019-06-07T17:28:58.473Z,7.80
2019-06-07T17:31:25.562Z,7.78
2019-06-07T17:33:52.610Z,8.50
2019-06-07T17:36:19.663Z,6.05
2019-06-07T17:38:46.707Z,5.50
2019-06-07T17:41:13.756Z,4.85
2019-06-07T17:43:52.031Z,5.22
2019-06-07T17:46:07.960Z,6.68
2019-06-07T17:48:34.971Z,4.37
2019-06-07T17:51:02.053Z,7.93
2019-06-07T17:53:30.641Z,7.15
2019-06-07T17:55:57.072Z,6.28
2019-06-07T17:58:24.223Z,6.70
2019-06-07T18:00:51.377Z,5.03
2019-06-07T18:03:18.524Z,6.72
2019-06-07T18:05:45.676Z,5.00
2019-06-07T18:08:12.938Z,7.68
2019-06-07T18:10:40.088Z,6.65
2019-06-07T18:13:07.130Z,7.28
2019-06-07T18:15:36.232Z,7.68
2019-06-07T18:18:03.889Z,6.03
2019-06-07T18:20:30.939Z,8.13
2019-06-07T18:23:16.495Z,9.90
2019-06-07T18:25:43.574Z,12.32
2019-06-07T18:28:10.727Z,9.15
2019-06-07T18:30:39.721Z,6.60
2019-06-07T18:33:07.043Z,4.97
2019-06-07T18:35:34.119Z,10.40
2019-06-07T18:38:01.987Z,8.90
2019-06-07T18:40:29.056Z,6.20
2019-06-07T18:42:56.090Z,4.93
2019-06-07T18:45:23.241Z,6.70
2019-06-07T18:47:51.338Z,7.37
2019-06-07T18:50:18.468Z,5.45
2019-06-07T18:52:46.696Z,8.20
2019-06-07T18:55:12.865Z,9.77
2019-06-07T18:57:39.915Z,8.38
2019-06-07T19:00:07.165Z,6.72
2019-06-07T19:02:34.225Z,10.60
2019-06-07T19:05:01.268Z,7.00
2019-06-07T19:07:28.313Z,9.77
2019-06-07T19:09:55.368Z,7.65
2019-06-07T19:12:22.409Z,8.20
2019-06-07T19:14:49.459Z,8.30
2019-06-07T19:17:16.611Z,8.95
2019-06-07T19:19:44.198Z,7.87
2019-06-07T19:22:11.217Z,9.35
2019-06-07T19:24:38.229Z,10.27
2019-06-07T19:27:05.315Z,7.47
2019-06-07T19:29:32.465Z,8.57
2019-06-07T19:32:16.857Z,11.07
2019-06-07T19:34:44.078Z,7.40
2019-06-07T19:37:11.232Z,9.43
2019-06-07T19:39:38.383Z,10.30
2019-06-07T19:42:05.432Z,11.07
2019-06-07T19:44:32.494Z,9.00
2019-06-07T19:47:00.626Z,8.88
2019-06-07T19:49:26.987Z,9.40
2019-06-07T19:51:54.961Z,9.13
2019-06-07T19:54:21.618Z,7.85
2019-06-07T19:56:48.776Z,10.88
2019-06-07T19:59:15.901Z,11.45
2019-06-07T20:01:43.106Z,11.50
2019-06-07T20:04:10.291Z,9.80
2019-06-07T20:06:37.966Z,9.50
2019-06-07T20:09:05.118Z,10.27
2019-06-07T20:11:32.163Z,10.43
2019-06-07T20:13:59.208Z,8.60
2019-06-07T20:16:26.264Z,16.70
2019-06-07T20:18:53.416Z,12.88
2019-06-07T20:21:20.769Z,11.10
2019-06-07T20:23:47.812Z,10.98
2019-06-07T20:26:14.866Z,12.68
2019-06-07T20:28:42.018Z,14.30
2019-06-07T20:31:09.061Z,13.68
2019-06-07T20:33:36.322Z,12.40
2019-06-07T20:36:04.670Z,15.50
2019-06-07T20:38:30.621Z,10.65
2019-06-07T20:40:57.630Z,12.45
2019-06-07T20:43:24.714Z,11.10
2019-06-07T20:45:51.767Z,11.07
2019-06-07T20:48:19.281Z,12.85
2019-06-07T20:50:46.375Z,11.25
2019-06-07T20:53:13.834Z,10.45
2019-06-07T20:55:40.879Z,13.07
2019-06-07T20:58:07.927Z,9.48
2019-06-07T21:00:35.056Z,9.27
2019-06-07T21:03:03.247Z,10.43
2019-06-07T21:05:29.380Z,10.43
2019-06-07T21:07:59.221Z,14.20
2019-06-07T21:10:30.125Z,9.75
2019-06-07T21:12:57.188Z,17.60
2019-06-07T21:15:24.340Z,14.07
2019-06-07T21:17:51.495Z,9.52
2019-06-07T21:20:18.640Z,12.57
2019-06-07T21:22:45.793Z,11.98
2019-06-07T21:25:12.941Z,11.65
2019-06-07T21:27:39.987Z,13.10
2019-06-07T21:30:09.526Z,10.65
2019-06-07T21:32:36.197Z,13.38
2019-06-07T21:35:03.869Z,14.40
2019-06-07T21:37:30.501Z,14.25
2019-06-07T21:39:57.585Z,13.50
2019-06-07T21:42:24.635Z,14.55
2019-06-07T21:44:51.686Z,16.02
2019-06-07T21:47:18.837Z,11.77
2019-06-07T21:49:45.880Z,14.18
2019-06-07T21:52:14.159Z,14.43
2019-06-07T21:54:42.947Z,12.40
2019-06-07T21:57:11.119Z,11.75
2019-06-07T21:59:37.829Z,18.50
2019-06-07T22:02:05.380Z,15.82
2019-06-07T22:04:32.073Z,12.40
2019-06-07T22:07:01.438Z,14.52
2019-06-07T22:09:28.515Z,11.75
2019-06-07T22:11:55.668Z,13.25
2019-06-07T22:14:22.722Z,12.25
2019-06-07T22:16:49.766Z,12.10
2019-06-07T22:19:16.814Z,13.90
2019-06-07T22:21:44.482Z,14.43
2019-06-07T22:24:12.955Z,15.63
2019-06-07T22:26:38.677Z,16.20
2019-06-07T22:29:06.313Z,11.70
2019-06-07T22:31:32.876Z,14.87
2019-06-07T22:34:00.438Z,18.30
2019-06-07T22:36:27.444Z,14.13
2019-06-07T22:38:54.539Z,13.43
2019-06-07T22:41:21.582Z,13.15
2019-06-07T22:43:48.609Z,17.75
2019-06-07T22:46:15.684Z,12.77
2019-06-07T22:48:42.727Z,12.65
2019-06-07T22:51:11.284Z,14.48
2019-06-07T22:53:37.139Z,13.25
2019-06-07T22:56:19.135Z,13.52
2019-06-07T22:59:00.535Z,14.27
2019-06-07T23:01:27.566Z,12.88
2019-06-07T23:03:54.573Z,14.75
2019-06-07T23:06:21.695Z,19.35
2019-06-07T23:08:48.821Z,15.30
2019-06-07T23:11:17.230Z,16.55
2019-06-07T23:13:43.014Z,12.20
2019-06-07T23:16:11.219Z,14.63
2019-06-07T23:18:37.314Z,18.08
2019-06-07T23:21:04.369Z,11.85
2019-06-07T23:23:31.520Z,15.32
2019-06-07T23:25:58.562Z,15.18
2019-06-07T23:28:25.612Z,12.65
2019-06-07T23:30:52.666Z,11.77
2019-06-07T23:33:20.994Z,12.35
2019-06-07T23:35:46.861Z,15.02
2019-06-07T23:38:16.941Z,13.95
2019-06-07T23:40:42.806Z,11.70
2019-06-07T23:43:11.642Z,14.55
2019-06-07T23:45:37.415Z,12.35
2019-06-07T23:48:04.459Z,12.52
2019-06-07T23:50:31.507Z,11.63
2019-06-07T23:52:58.563Z,10.93
2019-06-07T23:55:27.304Z,10.98
2019-06-07T23:57:55.889Z,14.82
